Time;durP1;ratioP1;P1;durP2;ratioP2;P2;SDS_P1;SDS_P2;PMS_P1;PMS_P2;Temp;Humidity;BMP_temperature;BMP_pressure;BME280_temperature;BME280_humidity;BME280_pressure;Samples;Min_cycle;Max_cycle;Signal;HPM_P1;HPM_P2
2023/09/21 00:01:13;;;;;;;3.58;1.60;;;;;;;26.93;40.92;99498.44;4468016;32;33837;-71
2023/09/21 00:03:42;;;;;;;3.97;1.40;;;;;;;26.92;41.02;99496.78;4468149;32;33924;-71
2023/09/21 00:06:13;;;;;;;3.40;1.45;;;;;;;26.92;41.19;99496.78;4469178;32;33878;-71
2023/09/21 00:08:40;;;;;;;4.35;1.60;;;;;;;26.92;41.16;99497.63;4430407;32;33909;-71
2023/09/21 00:11:09;;;;;;;3.05;1.40;;;;;;;26.91;41.24;99497.87;4455161;32;32753;-68
2023/09/21 00:13:39;;;;;;;2.78;1.25;;;;;;;26.91;41.24;99498.72;4467874;32;33982;-72
2023/09/21 00:16:11;;;;;;;4.22;1.92;;;;;;;26.93;41.19;99501.19;4467890;32;33396;-72
2023/09/21 00:18:42;;;;;;;1.83;1.27;;;;;;;26.91;41.32;99486.94;4454950;32;32463;-70
2023/09/21 00:21:12;;;;;;;3.85;1.70;;;;;;;26.92;41.45;99496.78;4468042;32;33799;-72
2023/09/21 00:23:43;;;;;;;3.47;1.20;;;;;;;26.91;41.36;99495.97;4467946;32;32720;-71
2023/09/21 00:26:12;;;;;;;3.20;1.30;;;;;;;26.93;41.26;99492.97;4467744;32;34170;-72
2023/09/21 00:28:43;;;;;;;4.50;1.60;;;;;;;26.92;41.24;99499.53;4467909;32;33577;-73
2023/09/21 00:31:11;;;;;;;4.78;1.50;;;;;;;26.91;41.17;99495.97;4481081;32;33501;-74
2023/09/21 00:33:40;;;;;;;4.85;1.65;;;;;;;26.92;41.03;99489.41;4454945;32;34450;-73
2023/09/21 00:36:09;;;;;;;3.30;1.45;;;;;;;26.91;41.00;99486.94;4467768;32;34869;-74
2023/09/21 00:38:37;;;;;;;2.15;1.40;;;;;;;26.90;41.18;99485.25;4480512;32;33657;-71
2023/09/21 00:41:05;;;;;;;5.07;1.55;;;;;;;26.90;40.95;99483.34;4469115;32;33404;-73
2023/09/21 00:43:32;;;;;;;4.82;1.40;;;;;;;26.92;40.85;99486.66;4466988;32;34351;-73
2023/09/21 00:46:03;;;;;;;4.85;1.58;;;;;;;26.92;40.63;99485.84;4467674;32;34088;-72
2023/09/21 00:48:36;;;;;;;3.30;1.60;;;;;;;26.92;40.61;99478.47;4455183;32;32614;-72
2023/09/21 00:51:07;;;;;;;3.12;1.58;;;;;;;26.89;40.86;99476.22;4450935;32;32805;-73
2023/09/21 00:53:36;;;;;;;3.47;1.50;;;;;;;26.89;40.76;99475.41;4455701;32;33462;-66
2023/09/21 00:56:09;;;;;;;3.62;1.27;;;;;;;26.88;40.81;99480.06;4455012;32;34128;-72
2023/09/21 00:58:37;;;;;;;3.08;1.40;;;;;;;26.90;40.79;99480.59;4467852;32;33536;-70
2023/09/21 01:01:27;;;;;;;2.95;1.30;;;;;;;26.89;40.80;99472.66;4442370;32;34228;-71
2023/09/21 01:03:55;;;;;;;2.33;1.33;;;;;;;26.90;40.60;99472.41;4467778;32;33939;-68
2023/09/21 01:06:24;;;;;;;2.80;1.25;;;;;;;26.88;40.87;99469.09;4468719;32;33895;-70
2023/09/21 01:08:52;;;;;;;3.30;1.35;;;;;;;26.89;40.57;99467.19;4442116;32;34398;-72
2023/09/21 01:11:20;;;;;;;3.22;1.35;;;;;;;26.87;40.91;99464.72;4467448;32;33532;-73
2023/09/21 01:13:48;;;;;;;2.22;1.30;;;;;;;26.89;40.75;99468.00;4454866;32;33809;-72
2023/09/21 01:16:17;;;;;;;2.25;1.40;;;;;;;26.89;40.72;99468.00;4468692;32;34031;-73
2023/09/21 01:18:46;;;;;;;1.50;1.10;;;;;;;26.88;40.86;99469.09;4467440;32;33571;-71
2023/09/21 01:21:15;;;;;;;8.98;1.98;;;;;;;26.89;40.78;99464.44;4455284;32;34035;-72
2023/09/21 01:23:47;;;;;;;3.00;1.40;;;;;;;26.89;40.62;99469.91;4454794;32;33528;-72
2023/09/21 01:26:15;;;;;;;3.05;1.33;;;;;;;26.87;40.71;99461.97;4467602;32;33131;-73
2023/09/21 01:28:47;;;;;;;2.42;1.60;;;;;;;26.86;40.94;99454.00;4442103;32;33499;-71
2023/09/21 01:31:16;;;;;;;2.55;1.50;;;;;;;26.87;40.58;99464.72;4454857;32;32752;-72
2023/09/21 01:33:44;;;;;;;4.85;1.40;;;;;;;26.86;40.80;99454.84;4442255;32;32741;-73
2023/09/21 01:36:12;;;;;;;5.30;1.60;;;;;;;26.86;40.81;99459.47;4416746;32;32998;-72
2023/09/21 01:38:44;;;;;;;2.90;1.60;;;;;;;26.87;40.46;99452.94;4467441;32;32796;-73
2023/09/21 01:41:13;;;;;;;3.53;1.35;;;;;;;26.85;40.81;99453.19;4467462;32;34747;-72
2023/09/21 01:43:42;;;;;;;4.15;1.50;;;;;;;26.85;40.65;99444.16;4468531;32;34610;-72
2023/09/21 01:46:09;;;;;;;2.83;1.50;;;;;;;26.86;40.45;99443.06;4468449;32;34153;-72
2023/09/21 01:48:38;;;;;;;5.50;1.65;;;;;;;26.86;40.38;99448.53;4454557;32;34363;-71
2023/09/21 01:51:07;;;;;;;5.12;1.37;;;;;;;26.85;40.63;99447.69;4465785;32;33941;-72
2023/09/21 01:53:35;;;;;;;2.08;1.30;;;;;;;26.83;40.75;99441.66;4470210;32;32228;-73
2023/09/21 01:56:04;;;;;;;1.95;1.30;;;;;;;26.84;40.51;99443.31;4469317;32;33998;-71
2023/09/21 01:58:31;;;;;;;4.03;1.40;;;;;;;26.85;40.57;99438.66;4483117;32;33770;-69
2023/09/21 02:01:01;;;;;;;9.25;1.80;;;;;;;26.84;40.55;99435.09;4500123;31;33865;-72
2023/09/21 02:03:30;;;;;;;;;;;;;;;26.84;40.69;99437.03;4486307;31;34689;-72
2023/09/21 02:06:02;;;;;;;3.10;1.50;;;;;;;26.93;40.20;99438.22;4485766;31;33762;-71
2023/09/21 02:08:33;;;;;;;3.15;1.37;;;;;;;26.84;40.59;99426.91;4460332;31;33203;-70
2023/09/21 02:11:00;;;;;;;3.30;1.55;;;;;;;26.83;40.74;99427.16;4472827;31;33568;-72
2023/09/21 02:13:30;;;;;;;2.30;1.42;;;;;;;26.83;40.66;99432.62;4472950;31;34428;-71
2023/09/21 02:15:58;;;;;;;3.78;1.58;;;;;;;26.81;40.61;99424.66;4459727;31;32895;-73
2023/09/21 02:18:27;;;;;;;4.50;1.70;;;;;;;26.81;40.95;99423.84;4485650;31;33391;-73
2023/09/21 02:20:55;;;;;;;3.28;1.48;;;;;;;26.80;40.88;99425.75;4472500;31;32188;-73
2023/09/21 02:23:24;;;;;;;2.85;1.50;;;;;;;26.82;40.58;99422.78;4472867;31;33766;-73
2023/09/21 02:25:53;;;;;;;4.40;1.80;;;;;;;26.80;40.42;99414.81;4499737;31;34960;-72
2023/09/21 02:28:22;;;;;;;2.90;1.45;;;;;;;26.81;40.39;99418.38;4459703;31;32530;-73
2023/09/21 02:30:50;;;;;;;4.43;1.25;;;;;;;26.80;40.44;99417.53;4472696;31;33937;-71
2023/09/21 02:33:22;;;;;;;3.50;1.45;;;;;;;26.81;40.25;99418.38;4472366;31;33057;-72
2023/09/21 02:35:50;;;;;;;4.07;1.45;;;;;;;26.80;40.26;99414.81;4472922;31;34130;-73
2023/09/21 02:38:20;;;;;;;2.22;1.35;;;;;;;26.79;40.55;99406.87;4472599;31;32426;-72
2023/09/21 02:40:48;;;;;;;4.45;1.52;;;;;;;26.80;40.31;99422.19;4485540;31;33822;-73
2023/09/21 02:43:16;;;;;;;3.72;1.33;;;;;;;26.80;40.31;99414.81;4499587;31;34710;-74
2023/09/21 02:45:45;;;;;;;4.25;1.58;;;;;;;26.79;40.55;99409.59;4459815;31;33185;-70
2023/09/21 02:48:15;;;;;;;3.47;1.23;;;;;;;26.80;40.10;99408.50;4472369;31;33349;-74
2023/09/21 02:50:47;;;;;;;3.72;1.70;;;;;;;26.80;40.43;99406.59;4466806;32;32879;-72
2023/09/21 02:53:16;;;;;;;2.72;1.50;;;;;;;26.79;40.60;99404.94;4467160;32;34781;-71
2023/09/21 02:55:44;;;;;;;4.53;1.60;;;;;;;26.81;40.22;99397.28;4466887;32;34279;-72
2023/09/21 02:58:15;;;;;;;3.37;1.37;;;;;;;26.79;40.44;99396.75;4441359;32;33482;-73
2023/09/21 03:00:45;;;;;;;2.35;1.27;;;;;;;26.79;40.18;99399.47;4441903;32;33167;-73
2023/09/21 03:03:14;;;;;;;4.07;1.60;;;;;;;26.82;40.43;99393.50;4454121;32;32874;-73
2023/09/21 03:05:46;;;;;;;;;;;;;;;26.81;40.40;99388.25;4467245;32;34052;-73
2023/09/21 03:08:17;;;;;;;3.85;1.70;;;;;;;26.87;40.27;99390.81;4467269;32;33499;-72
2023/09/21 03:10:47;;;;;;;3.72;1.55;;;;;;;26.81;40.30;99388.25;4454136;32;33663;-73
2023/09/21 03:13:18;;;;;;;2.53;1.13;;;;;;;26.78;40.54;99388.78;4441375;32;34360;-72
2023/09/21 03:15:47;;;;;;;3.35;1.55;;;;;;;26.78;40.46;99386.06;4453992;32;34723;-72
2023/09/21 03:18:15;;;;;;;3.65;1.48;;;;;;;26.77;40.53;99384.41;4466778;32;33028;-72
2023/09/21 03:20:44;;;;;;;5.77;1.90;;;;;;;26.77;40.52;99390.72;4440925;32;33903;-71
2023/09/21 03:23:13;;;;;;;2.72;1.42;;;;;;;26.78;40.08;99386.88;4466419;32;34682;-73
2023/09/21 03:25:47;;;;;;;5.40;1.73;;;;;;;26.80;39.93;99384.69;4453578;32;33518;-72
2023/09/21 03:28:15;;;;;;;4.50;1.73;;;;;;;26.78;40.42;99386.88;4453248;32;32568;-72
2023/09/21 03:30:47;;;;;;;3.05;1.42;;;;;;;26.76;40.41;99385.47;4453670;32;33902;-73
2023/09/21 03:33:18;;;;;;;4.28;1.90;;;;;;;26.75;40.62;99376.44;4440691;32;32873;-71
2023/09/21 03:35:46;;;;;;;3.37;1.60;;;;;;;26.75;40.63;99376.44;4466549;32;33853;-70
2023/09/21 03:38:18;;;;;;;2.35;1.33;;;;;;;26.75;40.68;99370.13;4453401;32;33822;-72
2023/09/21 03:40:50;;;;;;;3.80;1.50;;;;;;;26.77;40.55;99382.50;4453884;32;34656;-72
2023/09/21 03:43:18;;;;;;;5.68;1.92;;;;;;;26.75;40.63;99373.69;4466275;32;33684;-72
2023/09/21 03:45:47;;;;;;;3.30;1.70;;;;;;;26.74;40.72;99369.31;4453440;32;34708;-72
2023/09/21 03:48:16;;;;;;;3.30;1.80;;;;;;;26.74;40.56;99358.38;4466176;32;34122;-73
2023/09/21 03:50:44;;;;;;;4.25;1.50;;;;;;;26.74;40.60;99358.38;4446715;32;33466;-74
2023/09/21 03:53:13;;;;;;;3.97;1.80;;;;;;;26.74;40.58;99354.81;4466089;32;33882;-73
2023/09/21 03:55:41;;;;;;;3.80;1.85;;;;;;;26.74;40.38;99358.38;4453135;32;33379;-74
2023/09/21 03:58:10;;;;;;;3.42;1.62;;;;;;;26.74;40.66;99354.81;4466022;32;33098;-73
2023/09/21 04:00:38;;;;;;;4.72;1.90;;;;;;;26.75;40.55;99359.19;4453421;32;34745;-72
2023/09/21 04:03:08;;;;;;;14.73;2.03;;;;;;;26.76;40.61;99349.88;4479072;32;33721;-72
2023/09/21 04:05:39;;;;;;;7.70;1.58;;;;;;;26.73;40.64;99351.25;4469238;32;33673;-68
2023/09/21 04:08:07;;;;;;;;;;;;;;;26.74;40.72;99346.59;4456206;32;32077;-72
2023/09/21 04:10:36;;;;;;;6.55;1.70;;;;;;;26.83;40.35;99345.03;4481492;32;34761;-73
2023/09/21 04:13:05;;;;;;;3.72;1.70;;;;;;;26.77;40.36;99330.50;4468700;32;34715;-71
2023/09/21 04:15:33;;;;;;;3.15;1.55;;;;;;;26.74;40.46;99343.88;4481266;32;34167;-74
2023/09/21 04:18:02;;;;;;;3.62;1.30;;;;;;;26.70;40.70;99344.38;4483434;32;33529;-71
2023/09/21 04:20:34;;;;;;;6.03;1.77;;;;;;;26.73;40.34;99353.16;4483984;32;33837;-71
2023/09/21 04:23:03;;;;;;;6.70;1.95;;;;;;;26.71;40.75;99347.94;4483625;32;33997;-66
2023/09/21 04:25:32;;;;;;;5.82;1.75;;;;;;;26.71;40.56;99359.69;4470465;32;34853;-71
2023/09/21 04:28:00;;;;;;;5.07;1.80;;;;;;;26.69;40.75;99352.84;4483429;32;33756;-63
2023/09/21 04:30:28;;;;;;;3.40;1.85;;;;;;;26.70;40.61;99351.75;4483398;32;33476;-64
2023/09/21 04:32:57;;;;;;;4.57;1.67;;;;;;;26.68;40.37;99346.56;4483457;32;34722;-63
2023/09/21 04:35:26;;;;;;;6.35;1.92;;;;;;;26.67;40.17;99358.59;4470912;32;34841;-64
2023/09/21 04:37:56;;;;;;;3.78;1.77;;;;;;;26.68;39.98;99365.72;4484754;32;33375;-63
2023/09/21 04:40:25;;;;;;;4.50;2.00;;;;;;;26.65;39.82;99360.75;4457965;32;33754;-63
2023/09/21 04:42:54;;;;;;;6.28;2.17;;;;;;;26.64;39.73;99364.56;4458208;32;33491;-63
2023/09/21 04:45:23;;;;;;;3.35;1.75;;;;;;;26.64;39.81;99358.28;4478332;31;34027;-63
2023/09/21 04:47:53;;;;;;;5.05;1.83;;;;;;;26.63;39.71;99360.19;4467265;31;33363;-64
2023/09/21 04:50:21;;;;;;;3.90;2.37;;;;;;;26.61;39.64;99356.88;4479793;32;33600;-64
2023/09/21 04:52:49;;;;;;;6.72;2.67;;;;;;;26.60;39.58;99362.63;4466833;32;32972;-64
2023/09/21 04:55:17;;;;;;;7.30;2.42;;;;;;;26.58;39.66;99362.03;4469566;31;32971;-63
2023/09/21 04:57:46;;;;;;;10.60;2.00;;;;;;;26.57;39.70;99363.94;4476131;32;34411;-65
2023/09/21 05:00:15;;;;;;;7.32;2.10;;;;;;;26.58;39.75;99359.28;4484774;32;33328;-64
2023/09/21 05:02:44;;;;;;;9.75;2.37;;;;;;;26.55;39.76;99355.19;4467468;32;34214;-64
2023/09/21 05:05:14;;;;;;;6.40;2.20;;;;;;;26.55;39.73;99349.69;4475778;31;33847;-64
2023/09/21 05:07:42;;;;;;;8.20;2.20;;;;;;;26.55;39.73;99359.81;4468709;32;32917;-64
2023/09/21 05:10:12;;;;;;;3.35;1.67;;;;;;;26.54;39.81;99349.97;4457640;32;34015;-63
2023/09/21 05:12:40;;;;;;;7.10;1.87;;;;;;;26.52;39.89;99358.41;4458170;32;34552;-64
2023/09/21 05:15:11;;;;;;;4.70;1.92;;;;;;;26.53;39.88;99361.97;4470237;32;33448;-64
2023/09/21 05:17:38;;;;;;;6.20;2.35;;;;;;;26.51;39.82;99359.50;4486043;31;33642;-64
2023/09/21 05:20:09;;;;;;;4.22;1.87;;;;;;;26.51;39.78;99359.50;4500515;31;33882;-63
2023/09/21 05:22:40;;;;;;;4.50;2.30;;;;;;;26.49;39.89;99367.16;4473446;31;34753;-64
2023/09/21 05:25:09;;;;;;;6.03;1.67;;;;;;;26.50;39.92;99354.31;4486226;31;33868;-63
2023/09/21 05:27:37;;;;;;;6.12;2.25;;;;;;;26.49;39.85;99356.22;4500285;31;33581;-63
2023/09/21 05:30:05;;;;;;;5.87;1.95;;;;;;;26.48;39.82;99357.28;4485497;31;34715;-64
2023/09/21 05:32:33;;;;;;;6.37;2.40;;;;;;;26.47;39.85;99358.38;4472680;31;33904;-64
2023/09/21 05:35:06;;;;;;;3.95;2.12;;;;;;;26.46;39.88;99362.19;4486276;31;34175;-64
2023/09/21 05:37:35;;;;;;;11.95;2.37;;;;;;;26.45;39.90;99361.37;4473034;31;33156;-64
2023/09/21 05:40:06;;;;;;;4.97;2.10;;;;;;;26.47;39.87;99355.63;4486190;31;33396;-63
2023/09/21 05:42:35;;;;;;;6.03;2.08;;;;;;;26.44;39.93;99365.19;4460369;31;34839;-65
2023/09/21 05:45:03;;;;;;;4.35;2.40;;;;;;;26.42;40.00;99361.84;4499996;31;34743;-64
2023/09/21 05:47:32;;;;;;;4.82;2.08;;;;;;;26.41;40.03;99360.19;4500488;31;34178;-63
2023/09/21 05:50:00;;;;;;;5.47;2.10;;;;;;;26.41;40.09;99365.66;4482972;32;33775;-63
2023/09/21 05:52:30;;;;;;;4.40;1.80;;;;;;;26.40;40.10;99349.53;4484116;32;33881;-65
2023/09/21 05:54:58;;;;;;;8.27;2.25;;;;;;;26.40;40.18;99360.47;4470277;32;34265;-65
2023/09/21 05:57:26;;;;;;;6.22;2.20;;;;;;;26.40;40.22;99355.81;4484186;32;33683;-64
2023/09/21 05:59:54;;;;;;;5.75;2.15;;;;;;;26.40;40.27;99344.06;4471247;32;33721;-65
2023/09/21 06:02:22;;;;;;;4.93;2.05;;;;;;;26.39;40.23;99365.12;4482891;32;33901;-64
2023/09/21 06:04:50;;;;;;;6.10;2.40;;;;;;;26.40;40.27;99360.47;4482894;32;34057;-63
2023/09/21 06:07:17;;;;;;;7.32;2.30;;;;;;;26.39;40.22;99348.69;4484022;32;33734;-63
2023/09/21 06:09:45;;;;;;;4.40;2.35;;;;;;;26.40;40.19;99349.53;4469873;32;34567;-64
2023/09/21 06:12:13;;;;;;;5.32;2.33;;;;;;;26.39;40.19;99354.16;4482751;32;33126;-64
2023/09/21 06:14:41;;;;;;;4.53;2.00;;;;;;;26.39;40.23;99356.06;4482872;32;33651;-63
2023/09/21 06:17:13;;;;;;;4.37;2.17;;;;;;;26.38;40.24;99352.50;4482949;32;33461;-63
2023/09/21 06:19:44;;;;;;;6.70;2.45;;;;;;;26.39;40.24;99350.56;4458030;32;35026;-63
2023/09/21 06:22:12;;;;;;;7.03;2.30;;;;;;;26.38;40.22;99348.94;4470135;32;34018;-64
2023/09/21 06:24:42;;;;;;;3.97;2.05;;;;;;;26.38;40.20;99355.22;4482750;32;33605;-65
2023/09/21 06:27:10;;;;;;;;;;;;;;;26.38;40.18;99359.88;4470389;32;33589;-64
2023/09/21 06:29:37;;;;;;;4.22;1.80;;;;;;;26.47;40.01;99355.63;4484079;32;33783;-64
2023/09/21 06:32:07;;;;;;;7.15;2.10;;;;;;;26.38;40.14;99352.50;4469944;32;33307;-64
2023/09/21 06:34:41;;;;;;;6.00;2.30;;;;;;;26.36;40.23;99354.66;4470168;32;32985;-64
2023/09/21 06:37:09;;;;;;;4.60;2.33;;;;;;;26.34;40.20;99354.09;4482688;32;33335;-65
2023/09/21 06:39:37;;;;;;;3.42;2.00;;;;;;;26.34;40.26;99343.16;4469659;32;33929;-64
2023/09/21 06:42:05;;;;;;;4.18;2.08;;;;;;;26.34;40.29;99347.78;4455749;32;34474;-65
2023/09/21 06:44:33;;;;;;;5.87;2.20;;;;;;;26.34;40.30;99343.16;4482626;32;34140;-64
2023/09/21 06:47:01;;;;;;;4.45;2.20;;;;;;;26.33;40.35;99336.03;4469490;32;32606;-65
2023/09/21 06:49:29;;;;;;;4.57;2.17;;;;;;;26.32;40.42;99330.81;4482426;32;33607;-63
2023/09/21 06:51:58;;;;;;;5.78;2.75;;;;;;;26.32;40.48;99333.56;4469711;32;34693;-64
2023/09/21 06:54:29;;;;;;;5.80;2.40;;;;;;;26.32;40.57;99328.91;4483485;32;33776;-64
2023/09/21 06:57:03;;;;;;;5.75;2.67;;;;;;;26.31;40.63;99327.28;4469866;32;32587;-63
2023/09/21 06:59:36;;;;;;;6.32;2.50;;;;;;;26.30;40.67;99330.25;4470204;32;33796;-63
2023/09/21 07:02:07;;;;;;;6.35;2.28;;;;;;;26.28;40.74;99326.94;4483825;32;33715;-64
2023/09/21 07:04:53;;;;;;;8.40;2.70;;;;;;;26.30;40.78;99330.25;4472025;32;34936;-64
2023/09/21 07:07:21;;;;;;;5.78;2.50;;;;;;;26.28;40.84;99335.97;4482293;32;33354;-63
2023/09/21 07:09:48;;;;;;;6.90;2.55;;;;;;;26.28;40.89;99330.50;4482274;32;34042;-63
2023/09/21 07:12:17;;;;;;;4.75;2.47;;;;;;;26.30;40.92;99331.09;4482206;32;33862;-64
2023/09/21 07:14:50;;;;;;;5.72;2.47;;;;;;;26.29;40.94;99323.94;4469678;32;33299;-63
2023/09/21 07:17:17;;;;;;;5.47;2.65;;;;;;;26.28;40.96;99330.50;4456998;32;33638;-63
2023/09/21 07:19:45;;;;;;;4.75;2.58;;;;;;;26.30;40.95;99322.87;4483272;32;33988;-63
2023/09/21 07:22:13;;;;;;;7.32;3.03;;;;;;;26.28;40.99;99325.03;4482047;32;33716;-64
2023/09/21 07:24:40;;;;;;;5.97;2.17;;;;;;;26.29;41.01;99329.41;4482127;32;32667;-64
2023/09/21 07:27:08;;;;;;;5.93;2.78;;;;;;;26.29;41.04;99332.16;4481964;32;32712;-64
2023/09/21 07:29:36;;;;;;;6.30;2.62;;;;;;;26.29;41.08;99320.38;4482262;32;34136;-63
2023/09/21 07:32:04;;;;;;;6.22;2.60;;;;;;;26.28;41.11;99325.03;4483192;32;33891;-64
2023/09/21 07:34:35;;;;;;;6.72;2.85;;;;;;;26.29;41.14;99323.94;4481875;32;33820;-64
2023/09/21 07:37:03;;;;;;;7.50;2.83;;;;;;;26.30;41.26;99324.78;4456218;32;32243;-63
2023/09/21 07:39:31;;;;;;;5.82;2.72;;;;;;;26.30;41.31;99324.78;4481759;32;33588;-63
2023/09/21 07:41:58;;;;;;;6.50;2.70;;;;;;;26.29;41.33;99326.69;4481778;32;33784;-64
2023/09/21 07:44:26;;;;;;;5.72;2.37;;;;;;;26.30;41.32;99328.34;4483151;32;34924;-64
2023/09/21 07:46:56;;;;;;;5.60;2.60;;;;;;;26.31;41.35;99340.13;4466712;31;33768;-65
2023/09/21 07:49:25;;;;;;;5.45;2.53;;;;;;;26.31;41.36;99337.37;4483136;31;33647;-63
2023/09/21 07:51:56;;;;;;;8.90;2.78;;;;;;;26.31;41.39;99334.66;4442135;32;34244;-64
2023/09/21 07:54:23;;;;;;;6.03;2.40;;;;;;;26.33;41.41;99335.22;4484537;32;33903;-64
2023/09/21 07:56:51;;;;;;;6.35;2.10;;;;;;;26.33;41.47;99340.69;4445274;32;32684;-64
2023/09/21 07:59:19;;;;;;;5.28;2.53;;;;;;;26.33;41.48;99337.94;4470560;32;33101;-64
2023/09/21 08:01:48;;;;;;;5.95;2.50;;;;;;;26.32;41.50;99348.06;4484847;32;34025;-63
2023/09/21 08:04:17;;;;;;;7.43;2.70;;;;;;;26.33;41.54;99337.94;4471086;32;35510;-64
2023/09/21 08:06:45;;;;;;;5.85;2.25;;;;;;;26.34;41.55;99347.78;4483691;32;33507;-64
2023/09/21 08:09:18;;;;;;;6.50;2.90;;;;;;;26.33;41.56;99344.22;4484831;32;34618;-65
2023/09/21 08:11:53;;;;;;;6.70;2.80;;;;;;;26.34;41.59;99347.78;4484934;32;33591;-65
2023/09/21 08:14:20;;;;;;;4.50;2.28;;;;;;;26.34;41.65;99350.53;4483702;32;34862;-66
2023/09/21 08:16:48;;;;;;;8.82;2.53;;;;;;;26.33;41.67;99357.09;4457899;32;33518;-65
2023/09/21 08:19:16;;;;;;;8.50;2.70;;;;;;;26.33;41.67;99357.91;4470661;32;32812;-65
2023/09/21 08:21:44;;;;;;;7.37;2.37;;;;;;;26.34;41.67;99366.94;4484818;32;33847;-64
2023/09/21 08:24:12;;;;;;;4.95;2.30;;;;;;;26.33;41.71;99373.50;4483672;32;34764;-65
2023/09/21 08:26:40;;;;;;;4.70;2.50;;;;;;;26.33;41.70;99378.97;4483760;32;33650;-64
2023/09/21 08:29:08;;;;;;;6.43;2.53;;;;;;;26.35;41.67;99390.50;4457566;32;33827;-65
2023/09/21 08:31:36;;;;;;;6.80;2.75;;;;;;;26.35;41.69;99393.22;4483427;32;32750;-65
2023/09/21 08:34:04;;;;;;;6.72;2.40;;;;;;;26.34;41.72;99397.03;4483536;32;33105;-66
2023/09/21 08:36:31;;;;;;;6.97;2.45;;;;;;;26.34;41.79;99392.38;4483513;32;33859;-65
2023/09/21 08:39:01;;;;;;;6.47;2.70;;;;;;;26.35;41.88;99385.03;4470551;32;34684;-64
2023/09/21 08:41:28;;;;;;;;;;;;;;;26.35;42.14;99376.81;4485922;31;34679;-65
2023/09/21 08:43:56;;;;;;;4.35;2.45;;;;;;;26.42;42.16;99367.31;4473163;31;34829;-64
2023/09/21 08:46:24;;;;;;;5.05;2.40;;;;;;;26.34;42.35;99359.56;4500654;31;33593;-65
2023/09/21 08:48:55;;;;;;;5.10;2.08;;;;;;;26.33;42.65;99351.63;4473012;31;33929;-64
2023/09/21 08:51:23;;;;;;;6.47;2.67;;;;;;;26.33;42.89;99348.88;4474065;31;34383;-64
2023/09/21 08:53:52;;;;;;;6.90;2.53;;;;;;;26.32;42.94;99344.50;4460334;31;33934;-64
2023/09/21 08:56:21;;;;;;;8.05;2.95;;;;;;;26.31;42.94;99349.16;4473925;31;34438;-64
2023/09/21 08:58:50;;;;;;;5.93;2.70;;;;;;;26.32;42.79;99339.03;4459911;31;33370;-64
2023/09/21 09:01:18;;;;;;;6.43;2.75;;;;;;;26.32;42.76;99344.50;4474114;32;33587;-64
2023/09/21 09:03:47;;;;;;;6.57;2.78;;;;;;;26.34;42.91;99345.06;4473159;31;34116;-64
2023/09/21 09:06:15;;;;;;;6.37;2.67;;;;;;;26.35;42.91;99344.00;4472846;31;34078;-63
2023/09/21 09:08:46;;;;;;;5.47;2.60;;;;;;;26.36;42.90;99342.91;4500316;31;34608;-64
2023/09/21 09:11:35;;;;;;;5.60;2.53;;;;;;;26.37;42.99;99342.62;4472876;31;32842;-63
2023/09/21 09:14:03;;;;;;;6.22;2.90;;;;;;;26.40;43.00;99342.12;4484807;31;34458;-64
2023/09/21 09:16:31;;;;;;;5.20;2.70;;;;;;;26.39;43.08;99345.09;4456669;32;33018;-64
2023/09/21 09:19:00;;;;;;;5.65;2.55;;;;;;;26.39;43.22;99345.97;4470322;32;33811;-64
2023/09/21 09:21:30;;;;;;;6.97;2.70;;;;;;;26.39;43.29;99340.50;4483287;32;33673;-66
2023/09/21 09:23:58;;;;;;;7.30;3.20;;;;;;;26.40;43.51;99338.59;4464367;31;33777;-64
2023/09/21 09:26:25;;;;;;;6.47;3.08;;;;;;;26.40;43.68;99336.66;4500316;31;34462;-64
2023/09/21 09:29:12;;;;;;;5.87;2.78;;;;;;;26.40;43.78;99335.84;4467759;31;34433;-65
2023/09/21 09:31:41;;;;;;;5.45;3.00;;;;;;;26.41;43.96;99326.53;4480517;31;34022;-64
2023/09/21 09:34:16;;;;;;;6.53;3.00;;;;;;;26.39;43.93;99323.22;4466603;32;34067;-65
2023/09/21 09:36:46;;;;;;;7.62;3.15;;;;;;;26.39;43.93;99332.28;4467394;32;33616;-66
2023/09/21 09:39:15;;;;;;;5.00;2.70;;;;;;;26.39;44.01;99317.75;4463731;31;32999;-65
2023/09/21 09:41:42;;;;;;;6.32;2.87;;;;;;;26.39;44.11;99317.75;4471796;31;33838;-65
2023/09/21 09:44:10;;;;;;;9.07;3.17;;;;;;;26.40;44.22;99324.91;4482995;31;34632;-64
2023/09/21 09:46:41;;;;;;;6.18;2.87;;;;;;;26.38;44.21;99316.94;4483150;32;33228;-64
2023/09/21 09:49:10;;;;;;;7.62;3.42;;;;;;;26.38;44.13;99311.47;4468103;31;34376;-66
2023/09/21 09:51:42;;;;;;;6.75;3.47;;;;;;;26.39;44.18;99313.13;4468526;32;33889;-65
2023/09/21 09:54:10;;;;;;;5.62;2.58;;;;;;;26.39;44.35;99315.87;4479499;32;34155;-66
2023/09/21 09:56:41;;;;;;;5.32;2.80;;;;;;;26.40;44.21;99316.69;4469851;32;33477;-66
2023/09/21 09:59:10;;;;;;;6.20;3.10;;;;;;;26.40;44.16;99313.97;4484135;32;33861;-66
2023/09/21 10:01:47;;;;;;;6.85;2.85;;;;;;;26.41;44.47;99305.47;4484064;32;33587;-66
2023/09/21 10:04:15;;;;;;;9.05;3.33;;;;;;;26.41;44.44;99304.66;4484118;32;34045;-66
2023/09/21 10:06:42;;;;;;;8.25;3.58;;;;;;;26.40;44.60;99306.56;4481978;32;34368;-66
2023/09/21 10:09:10;;;;;;;6.15;3.08;;;;;;;26.41;44.77;99304.66;4481009;32;33801;-66
2023/09/21 10:11:42;;;;;;;6.50;2.93;;;;;;;26.41;44.74;99299.19;4481900;32;34381;-67
2023/09/21 10:14:11;;;;;;;5.72;2.97;;;;;;;26.42;44.81;99303.56;4468285;32;34352;-66
2023/09/21 10:16:46;;;;;;;6.45;2.87;;;;;;;26.43;45.02;99299.78;4467404;32;34383;-66
2023/09/21 10:19:17;;;;;;;5.78;2.87;;;;;;;26.42;44.96;99292.63;4480637;32;34722;-66
2023/09/21 10:21:45;;;;;;;6.75;3.22;;;;;;;26.42;44.89;99289.91;4482034;32;33724;-66
2023/09/21 10:24:13;;;;;;;5.93;2.50;;;;;;;26.44;45.12;99279.56;4482461;32;34698;-66
2023/09/21 10:26:49;;;;;;;7.65;2.62;;;;;;;26.43;45.01;99275.16;4483468;32;33576;-67
2023/09/21 10:29:19;;;;;;;10.15;3.10;;;;;;;26.44;45.13;99276.84;4483802;32;33964;-66
2023/09/21 10:31:54;;;;;;;4.62;2.70;;;;;;;26.43;45.02;99275.16;4482590;32;34740;-65
2023/09/21 10:34:25;;;;;;;5.65;2.45;;;;;;;26.45;44.83;99273.00;4482512;32;34067;-66
2023/09/21 10:37:15;;;;;;;8.23;2.75;;;;;;;26.44;44.95;99271.38;4483894;32;34378;-67
2023/09/21 10:39:43;;;;;;;;;;;;;;;26.47;45.13;99279.03;4482766;32;34658;-66
2023/09/21 10:42:12;;;;;;;7.35;3.00;;;;;;;26.53;44.85;99264.31;4482694;32;35151;-65
2023/09/21 10:45:07;;;;;;;6.15;2.70;;;;;;;26.47;44.93;99268.09;4483802;32;34722;-66
2023/09/21 10:47:41;;;;;;;5.78;2.87;;;;;;;26.47;44.86;99259.88;4483757;32;34513;-66
2023/09/21 10:50:16;;;;;;;6.87;3.00;;;;;;;26.44;45.18;99253.03;4482734;32;33936;-66
2023/09/21 10:52:47;;;;;;;5.65;2.90;;;;;;;26.45;45.17;99251.12;4483651;32;34136;-65
2023/09/21 10:55:16;;;;;;;4.97;2.72;;;;;;;26.45;45.08;99242.91;4469929;32;32701;-67
2023/09/21 10:57:46;;;;;;;5.35;2.65;;;;;;;26.44;45.01;99241.28;4483526;32;33477;-66
2023/09/21 11:00:18;;;;;;;7.57;2.70;;;;;;;26.45;44.88;99242.91;4483514;32;34109;-65
2023/09/21 11:02:49;;;;;;;7.82;3.00;;;;;;;26.46;44.81;99244.56;4483549;32;34802;-66
2023/09/21 11:05:18;;;;;;;5.60;2.70;;;;;;;26.45;44.75;99230.06;4483466;32;34059;-66
2023/09/21 11:07:50;;;;;;;6.90;2.90;;;;;;;26.45;44.79;99227.31;4482309;32;33545;-66
2023/09/21 11:10:18;;;;;;;6.93;3.15;;;;;;;26.47;44.75;99223.50;4483366;32;34677;-66
2023/09/21 11:12:45;;;;;;;6.87;3.03;;;;;;;26.47;44.92;99221.59;4483598;32;34982;-65
2023/09/21 11:15:16;;;;;;;7.65;2.80;;;;;;;26.47;45.00;99216.09;4483495;32;34970;-66
2023/09/21 11:17:46;;;;;;;5.45;2.87;;;;;;;26.48;44.88;99214.19;4483318;32;33610;-66
2023/09/21 11:20:17;;;;;;;6.78;2.78;;;;;;;26.48;44.78;99212.28;4483325;32;33939;-65
2023/09/21 11:22:46;;;;;;;4.25;2.53;;;;;;;26.49;44.83;99210.38;4469569;32;34038;-66
2023/09/21 11:25:16;;;;;;;7.47;3.20;;;;;;;26.47;44.76;99205.16;4483341;32;33790;-65
2023/09/21 11:27:43;;;;;;;5.62;2.83;;;;;;;26.49;44.81;99191.22;4482434;32;33293;-65
2023/09/21 11:30:13;;;;;;;5.22;2.37;;;;;;;26.49;44.92;99192.06;4483863;32;34368;-65
2023/09/21 11:32:46;;;;;;;5.80;2.75;;;;;;;26.49;44.73;99189.34;4485103;32;34038;-67
2023/09/21 11:35:14;;;;;;;6.80;3.30;;;;;;;26.50;44.67;99190.97;4471188;32;34552;-66
2023/09/21 11:37:43;;;;;;;8.40;3.15;;;;;;;26.49;44.77;99183.88;4483867;32;33229;-66
2023/09/21 11:40:13;;;;;;;5.57;2.92;;;;;;;26.50;44.70;99173.75;4485157;32;34900;-66
2023/09/21 11:42:44;;;;;;;8.13;3.05;;;;;;;26.49;44.72;99170.19;4485105;32;34801;-66
2023/09/21 11:45:19;;;;;;;10.40;3.20;;;;;;;26.49;44.69;99163.84;4485059;32;33898;-65